Time;durP1;ratioP1;P1;durP2;ratioP2;P2;SDS_P1;SDS_P2;PMS_P1;PMS_P2;Temp;Humidity;BMP_temperature;BMP_pressure;BME280_temperature;BME280_humidity;BME280_pressure;Samples;Min_cycle;Max_cycle;Signal;HPM_P1;HPM_P2
2023/04/08 00:01:30;;;;;;;4.17;3.73;;;;;;;;;;5051414;28;20574;-55
2023/04/08 00:03:56;;;;;;;4.00;3.60;;;;;;;;;;5051253;28;20200;-53
2023/04/08 00:06:22;;;;;;;3.70;3.40;;;;;;;;;;5051395;28;20223;-55
2023/04/08 00:08:48;;;;;;;3.87;3.57;;;;;;;;;;5051277;28;20215;-55
2023/04/08 00:11:14;;;;;;;4.00;3.60;;;;;;;;;;5051197;28;20232;-56
2023/04/08 00:13:40;;;;;;;3.93;3.33;;;;;;;;;;5051298;28;20279;-55
2023/04/08 00:16:06;;;;;;;4.07;3.53;;;;;;;;;;5051020;28;20287;-57
2023/04/08 00:18:34;;;;;;;4.33;3.13;;;;;;;;;;5051289;28;20310;-55
2023/04/08 00:21:00;;;;;;;4.27;3.73;;;;;;;;;;5051083;28;20562;-55
2023/04/08 00:23:26;;;;;;;3.93;3.63;;;;;;;;;;5053992;28;20206;-56
2023/04/08 00:25:52;;;;;;;4.43;4.07;;;;;;;;;;5055127;28;20210;-55
2023/04/08 00:28:18;;;;;;;3.97;3.57;;;;;;;;;;5055293;28;20220;-55
2023/04/08 00:30:44;;;;;;;3.57;3.27;;;;;;;;;;5055122;28;20203;-55
2023/04/08 00:33:10;;;;;;;4.40;4.00;;;;;;;;;;5054720;28;20247;-55
2023/04/08 00:35:37;;;;;;;4.47;4.07;;;;;;;;;;5054894;28;20684;-55
2023/04/08 00:38:06;;;;;;;4.00;3.60;;;;;;;;;;5054730;28;20237;-55
2023/04/08 00:40:32;;;;;;;4.43;4.03;;;;;;;;;;5054931;28;20204;-55
2023/04/08 00:42:58;;;;;;;4.50;3.97;;;;;;;;;;5054769;28;20565;-55
2023/04/08 00:45:24;;;;;;;4.10;3.70;;;;;;;;;;5054805;28;20600;-55
2023/04/08 00:47:51;;;;;;;4.53;3.77;;;;;;;;;;5054642;28;20192;-55
2023/04/08 00:50:17;;;;;;;4.83;4.20;;;;;;;;;;5055163;28;20674;-56
2023/04/08 00:52:45;;;;;;;4.43;3.63;;;;;;;;;;5074792;28;20196;-55
2023/04/08 00:55:11;;;;;;;3.70;3.40;;;;;;;;;;5074449;28;20673;-55
2023/04/08 00:57:37;;;;;;;4.50;4.07;;;;;;;;;;5074459;28;20242;-55
2023/04/08 01:00:04;;;;;;;4.50;4.10;;;;;;;;;;5074350;28;20203;-55
2023/04/08 01:02:35;;;;;;;4.57;3.90;;;;;;;;;;5074602;28;20203;-55
2023/04/08 01:05:03;;;;;;;5.27;4.20;;;;;;;;;;5074576;28;20203;-55
2023/04/08 01:07:31;;;;;;;6.00;4.20;;;;;;;;;;5074316;28;20658;-55
2023/04/08 01:10:02;;;;;;;4.80;4.33;;;;;;;;;;5074399;28;20663;-55
2023/04/08 01:12:29;;;;;;;3.90;3.50;;;;;;;;;;5074531;28;20210;-55
2023/04/08 01:14:58;;;;;;;5.23;4.00;;;;;;;;;;5074109;28;20555;-55
2023/04/08 01:17:24;;;;;;;4.83;4.33;;;;;;;;;;5074108;28;20223;-55
2023/04/08 01:19:51;;;;;;;4.17;3.77;;;;;;;;;;5074056;28;20199;-55
2023/04/08 01:22:22;;;;;;;4.67;4.23;;;;;;;;;;5074229;28;20196;-55
2023/04/08 01:24:49;;;;;;;4.93;4.53;;;;;;;;;;5074076;28;20196;-55
2023/04/08 01:27:17;;;;;;;6.87;4.37;;;;;;;;;;5074144;28;20199;-55
2023/04/08 01:29:44;;;;;;;4.57;4.17;;;;;;;;;;5074045;28;20215;-55
2023/04/08 01:32:11;;;;;;;6.90;4.37;;;;;;;;;;5073717;28;20246;-55
2023/04/08 01:34:37;;;;;;;4.33;3.93;;;;;;;;;;5072901;28;20278;-55
2023/04/08 01:37:04;;;;;;;4.67;4.20;;;;;;;;;;5073674;28;20219;-55
2023/04/08 01:39:30;;;;;;;5.47;3.87;;;;;;;;;;5073911;28;20697;-55
2023/04/08 01:41:58;;;;;;;4.67;4.17;;;;;;;;;;5073653;28;20195;-55
2023/04/08 01:44:25;;;;;;;3.97;3.57;;;;;;;;;;5073702;28;20248;-55
2023/04/08 01:46:52;;;;;;;4.73;4.23;;;;;;;;;;5073628;28;20204;-55
2023/04/08 01:49:18;;;;;;;4.67;4.27;;;;;;;;;;5073664;28;20699;-55
2023/04/08 01:51:46;;;;;;;5.20;4.17;;;;;;;;;;5073734;28;20195;-55
2023/04/08 01:54:12;;;;;;;5.17;4.63;;;;;;;;;;5073493;28;20257;-55
2023/04/08 01:56:40;;;;;;;5.00;4.50;;;;;;;;;;5073389;28;20621;-55
2023/04/08 01:59:08;;;;;;;5.50;4.30;;;;;;;;;;5073343;28;20295;-55
2023/04/08 02:01:36;;;;;;;4.67;4.17;;;;;;;;;;5073230;28;20676;-55
2023/04/08 02:04:03;;;;;;;6.60;4.80;;;;;;;;;;5073356;28;20203;-55
2023/04/08 02:06:30;;;;;;;5.37;4.80;;;;;;;;;;5073429;28;20650;-55
2023/04/08 02:08:57;;;;;;;4.63;4.23;;;;;;;;;;5073137;28;20206;-55
2023/04/08 02:11:24;;;;;;;5.47;4.80;;;;;;;;;;5073203;28;20894;-54
2023/04/08 02:13:50;;;;;;;5.47;4.60;;;;;;;;;;5073113;28;20256;-54
2023/04/08 02:16:20;;;;;;;5.77;4.90;;;;;;;;;;5073045;28;20261;-54
2023/04/08 02:18:51;;;;;;;4.70;4.20;;;;;;;;;;5072860;28;20231;-57
2023/04/08 02:21:18;;;;;;;5.40;4.90;;;;;;;;;;5073176;28;20204;-54
2023/04/08 02:23:50;;;;;;;5.43;4.73;;;;;;;;;;5073138;28;20211;-55
2023/04/08 02:26:18;;;;;;;5.37;4.57;;;;;;;;;;5070321;28;20328;-54
2023/04/08 02:28:44;;;;;;;6.53;4.63;;;;;;;;;;5072648;28;20320;-54
2023/04/08 02:31:14;;;;;;;5.60;5.10;;;;;;;;;;5072178;28;20200;-54
2023/04/08 02:33:41;;;;;;;6.83;4.80;;;;;;;;;;5072626;28;20203;-54
2023/04/08 02:36:09;;;;;;;5.37;4.87;;;;;;;;;;5072464;28;20598;-55
2023/04/08 02:38:35;;;;;;;6.00;4.97;;;;;;;;;;5072855;28;20596;-55
2023/04/08 02:41:01;;;;;;;5.43;4.93;;;;;;;;;;5073152;28;20208;-55
2023/04/08 02:43:33;;;;;;;5.40;4.90;;;;;;;;;;5072927;28;20249;-55
2023/04/08 02:46:01;;;;;;;5.53;5.03;;;;;;;;;;5072878;28;20196;-55
2023/04/08 02:48:27;;;;;;;5.17;4.67;;;;;;;;;;5072826;28;20701;-54
2023/04/08 02:50:53;;;;;;;5.50;5.00;;;;;;;;;;5072600;28;20250;-54
2023/04/08 02:53:21;;;;;;;6.57;5.70;;;;;;;;;;5071847;28;20225;-55
2023/04/08 02:55:47;;;;;;;6.90;6.10;;;;;;;;;;5071569;28;20280;-55
2023/04/08 02:58:13;;;;;;;8.27;6.20;;;;;;;;;;5072590;28;20586;-55
2023/04/08 03:00:39;;;;;;;6.80;6.07;;;;;;;;;;5072624;28;20202;-54
2023/04/08 03:03:06;;;;;;;7.63;6.83;;;;;;;;;;5072646;28;20196;-55
2023/04/08 03:05:32;;;;;;;7.37;6.30;;;;;;;;;;5072765;28;20191;-54
2023/04/08 03:07:58;;;;;;;7.10;6.40;;;;;;;;;;5072378;28;20203;-54
2023/04/08 03:10:25;;;;;;;8.77;7.30;;;;;;;;;;5072283;28;20195;-55
2023/04/08 03:12:51;;;;;;;7.90;6.90;;;;;;;;;;5072193;28;20310;-54
2023/04/08 03:15:17;;;;;;;8.03;7.00;;;;;;;;;;5072376;28;20201;-54
2023/04/08 03:17:43;;;;;;;7.23;6.43;;;;;;;;;;5072279;28;20231;-54
2023/04/08 03:20:10;;;;;;;8.20;7.37;;;;;;;;;;5072392;28;20192;-54
2023/04/08 03:22:36;;;;;;;7.53;6.53;;;;;;;;;;5072240;28;20696;-54
2023/04/08 03:25:03;;;;;;;8.73;7.50;;;;;;;;;;5072148;28;20201;-54
2023/04/08 03:27:30;;;;;;;8.00;7.20;;;;;;;;;;5072169;28;20191;-54
2023/04/08 03:29:56;;;;;;;8.47;7.53;;;;;;;;;;5072187;28;20202;-54
2023/04/08 03:32:22;;;;;;;8.40;7.53;;;;;;;;;;5071953;28;20235;-55
2023/04/08 03:34:50;;;;;;;8.50;7.60;;;;;;;;;;5072248;28;20205;-54
2023/04/08 03:37:16;;;;;;;10.10;7.47;;;;;;;;;;5072322;28;20231;-54
2023/04/08 03:39:42;;;;;;;9.93;8.30;;;;;;;;;;5072114;28;20202;-55
2023/04/08 03:42:08;;;;;;;8.77;7.53;;;;;;;;;;5072054;28;20196;-54
2023/04/08 03:44:35;;;;;;;7.63;6.87;;;;;;;;;;5071943;28;20680;-54
2023/04/08 03:47:01;;;;;;;9.17;8.23;;;;;;;;;;5072013;28;20217;-55
2023/04/08 03:49:27;;;;;;;11.13;8.50;;;;;;;;;;5072184;28;20724;-55
2023/04/08 03:51:53;;;;;;;9.77;8.03;;;;;;;;;;5071984;28;20203;-55
2023/04/08 03:54:19;;;;;;;9.90;8.20;;;;;;;;;;5072136;28;20277;-54
2023/04/08 03:56:45;;;;;;;9.20;8.20;;;;;;;;;;5071649;28;20246;-54
2023/04/08 03:59:11;;;;;;;8.13;7.37;;;;;;;;;;5071777;28;20196;-54
2023/04/08 04:01:38;;;;;;;10.83;8.47;;;;;;;;;;5071812;28;20191;-55
2023/04/08 04:04:04;;;;;;;8.90;7.70;;;;;;;;;;5071769;28;20199;-54
2023/04/08 04:06:30;;;;;;;9.67;8.43;;;;;;;;;;5072076;28;20195;-54
2023/04/08 04:08:56;;;;;;;10.10;8.70;;;;;;;;;;5071849;28;20944;-54
2023/04/08 04:11:22;;;;;;;10.40;8.73;;;;;;;;;;5072018;28;20199;-54
2023/04/08 04:13:48;;;;;;;10.17;9.10;;;;;;;;;;5071875;28;20559;-55
2023/04/08 04:16:14;;;;;;;10.80;9.00;;;;;;;;;;5071844;28;20199;-54
2023/04/08 04:18:42;;;;;;;9.23;8.13;;;;;;;;;;5071799;28;20321;-54
2023/04/08 04:21:08;;;;;;;9.30;8.10;;;;;;;;;;5071476;28;20831;-54
2023/04/08 04:23:34;;;;;;;10.03;8.50;;;;;;;;;;5071472;28;20195;-55
2023/04/08 04:26:00;;;;;;;11.50;8.70;;;;;;;;;;5071853;28;20192;-54
2023/04/08 04:28:26;;;;;;;9.77;7.83;;;;;;;;;;5071952;28;20677;-54
2023/04/08 04:30:52;;;;;;;9.73;8.73;;;;;;;;;;5071612;28;20194;-55
2023/04/08 04:33:18;;;;;;;10.07;8.87;;;;;;;;;;5071533;28;20231;-54
2023/04/08 04:35:45;;;;;;;10.13;8.47;;;;;;;;;;5071839;28;20738;-54
2023/04/08 04:38:12;;;;;;;9.77;8.33;;;;;;;;;;5071320;28;20246;-55
2023/04/08 04:40:38;;;;;;;9.37;8.37;;;;;;;;;;5071490;28;20238;-54
2023/04/08 04:43:04;;;;;;;11.03;9.83;;;;;;;;;;5071445;28;20674;-54
2023/04/08 04:45:30;;;;;;;10.87;9.27;;;;;;;;;;5071593;28;20202;-55
2023/04/08 04:47:56;;;;;;;11.13;9.93;;;;;;;;;;5071437;28;20192;-54
2023/04/08 04:50:22;;;;;;;12.37;10.13;;;;;;;;;;5071485;28;20188;-55
2023/04/08 04:52:50;;;;;;;13.80;10.87;;;;;;;;;;5071470;28;20199;-55
2023/04/08 04:55:16;;;;;;;13.33;10.43;;;;;;;;;;5071151;28;20257;-54
2023/04/08 04:57:43;;;;;;;13.00;9.87;;;;;;;;;;5071211;28;20878;-54
2023/04/08 05:00:09;;;;;;;14.67;9.97;;;;;;;;;;5071268;28;20735;-54
2023/04/08 05:02:35;;;;;;;12.17;10.47;;;;;;;;;;5071442;28;20491;-55
2023/04/08 05:05:01;;;;;;;11.67;10.10;;;;;;;;;;5071346;28;20195;-55
2023/04/08 05:07:27;;;;;;;13.77;10.97;;;;;;;;;;5071491;28;20681;-55
2023/04/08 05:09:55;;;;;;;12.50;9.87;;;;;;;;;;5072713;28;20199;-55
2023/04/08 05:12:21;;;;;;;10.97;9.83;;;;;;;;;;5074792;28;20853;-55
2023/04/08 05:14:46;;;;;;;14.73;10.70;;;;;;;;;;5074698;28;20230;-55
2023/04/08 05:17:12;;;;;;;13.77;10.53;;;;;;;;;;5074625;28;20261;-55
2023/04/08 05:19:39;;;;;;;14.77;10.37;;;;;;;;;;5072603;28;20253;-53
2023/04/08 05:22:05;;;;;;;12.33;10.77;;;;;;;;;;5074682;28;20200;-54
2023/04/08 05:24:31;;;;;;;13.30;10.70;;;;;;;;;;5074656;28;20723;-53
2023/04/08 05:26:58;;;;;;;10.93;9.83;;;;;;;;;;5074568;28;20200;-54
2023/04/08 05:29:24;;;;;;;12.50;10.83;;;;;;;;;;5074628;28;20196;-54
2023/04/08 05:31:50;;;;;;;13.90;10.43;;;;;;;;;;5074349;28;20701;-55
2023/04/08 05:34:21;;;;;;;13.33;10.33;;;;;;;;;;5074497;28;20562;-54
2023/04/08 05:36:50;;;;;;;12.20;10.10;;;;;;;;;;5074259;28;20226;-54
2023/04/08 05:39:16;;;;;;;14.07;10.33;;;;;;;;;;5072497;28;20206;-54
2023/04/08 05:41:43;;;;;;;11.97;10.53;;;;;;;;;;5074388;28;20566;-54
2023/04/08 05:44:10;;;;;;;12.27;9.77;;;;;;;;;;5074242;28;21048;-54
2023/04/08 05:46:36;;;;;;;14.70;10.13;;;;;;;;;;5074345;28;20199;-54
2023/04/08 05:49:02;;;;;;;14.10;10.53;;;;;;;;;;5073830;28;20199;-54
2023/04/08 05:51:29;;;;;;;13.77;10.30;;;;;;;;;;5074250;28;20214;-54
2023/04/08 05:53:55;;;;;;;13.27;10.97;;;;;;;;;;5074105;28;20196;-54
2023/04/08 05:56:21;;;;;;;16.67;10.80;;;;;;;;;;5073867;28;20226;-55
2023/04/08 05:58:47;;;;;;;12.17;10.00;;;;;;;;;;5073974;28;20227;-55
2023/04/08 06:01:14;;;;;;;11.53;9.93;;;;;;;;;;5073898;28;20234;-56
2023/04/08 06:03:40;;;;;;;14.13;10.60;;;;;;;;;;5073890;28;20198;-55
2023/04/08 06:06:10;;;;;;;11.43;9.23;;;;;;;;;;5073683;28;20567;-55
2023/04/08 06:08:36;;;;;;;11.83;9.97;;;;;;;;;;5073869;28;20239;-55
2023/04/08 06:11:05;;;;;;;12.77;9.53;;;;;;;;;;5073737;28;20616;-56
2023/04/08 06:13:31;;;;;;;11.80;10.03;;;;;;;;;;5073767;28;20816;-55
2023/04/08 06:15:57;;;;;;;13.63;10.40;;;;;;;;;;5073549;28;20568;-56
2023/04/08 06:18:25;;;;;;;13.73;10.00;;;;;;;;;;5073618;28;20247;-56
2023/04/08 06:20:51;;;;;;;12.67;9.57;;;;;;;;;;5073061;28;20669;-55
2023/04/08 06:23:17;;;;;;;12.33;9.80;;;;;;;;;;5073602;28;20199;-53
2023/04/08 06:25:43;;;;;;;11.53;8.90;;;;;;;;;;5073585;28;20195;-56
2023/04/08 06:28:09;;;;;;;11.20;9.70;;;;;;;;;;5073368;28;20200;-55
2023/04/08 06:30:35;;;;;;;13.50;10.43;;;;;;;;;;5073289;28;20230;-55
2023/04/08 06:33:01;;;;;;;14.00;10.00;;;;;;;;;;5073185;28;20744;-56
2023/04/08 06:35:28;;;;;;;10.67;9.37;;;;;;;;;;5073208;28;20199;-55
2023/04/08 06:37:54;;;;;;;11.17;9.73;;;;;;;;;;5073049;28;20568;-55
2023/04/08 06:40:20;;;;;;;12.87;9.53;;;;;;;;;;5073048;28;20773;-55
2023/04/08 06:42:47;;;;;;;12.47;9.63;;;;;;;;;;5073213;28;20234;-55
2023/04/08 06:45:13;;;;;;;10.90;8.80;;;;;;;;;;5073007;28;20204;-55
2023/04/08 06:47:39;;;;;;;12.27;9.87;;;;;;;;;;5073029;28;20253;-55
2023/04/08 06:50:06;;;;;;;13.33;9.27;;;;;;;;;;5072885;28;20597;-55
2023/04/08 06:52:33;;;;;;;12.43;9.93;;;;;;;;;;5073046;28;20282;-55
2023/04/08 06:54:59;;;;;;;10.40;9.03;;;;;;;;;;5072873;28;20207;-55
2023/04/08 06:57:25;;;;;;;11.50;9.03;;;;;;;;;;5072657;28;20231;-55
2023/04/08 06:59:52;;;;;;;8.10;7.37;;;;;;;;;;5072707;28;20284;-55
2023/04/08 07:02:18;;;;;;;11.87;9.07;;;;;;;;;;5072593;28;20914;-55
2023/04/08 07:04:44;;;;;;;9.83;8.47;;;;;;;;;;5072787;28;20203;-55
2023/04/08 07:07:10;;;;;;;9.23;8.23;;;;;;;;;;5072479;28;20270;-55
2023/04/08 07:09:38;;;;;;;10.67;8.50;;;;;;;;;;5072627;28;20195;-55
2023/04/08 07:12:04;;;;;;;9.80;8.50;;;;;;;;;;5072446;28;20203;-55
2023/04/08 07:14:30;;;;;;;10.53;8.97;;;;;;;;;;5072633;28;20210;-55
2023/04/08 07:16:56;;;;;;;11.33;9.03;;;;;;;;;;5072296;28;20212;-55
2023/04/08 07:19:23;;;;;;;9.80;8.33;;;;;;;;;;5072520;28;20234;-55
2023/04/08 07:21:49;;;;;;;9.90;8.87;;;;;;;;;;5072419;28;20199;-55
2023/04/08 07:24:15;;;;;;;13.27;9.73;;;;;;;;;;5072402;28;20199;-56
2023/04/08 07:26:42;;;;;;;11.50;8.90;;;;;;;;;;5072339;28;20215;-56
2023/04/08 07:29:08;;;;;;;11.70;8.90;;;;;;;;;;5072107;28;20210;-53
2023/04/08 07:31:34;;;;;;;10.37;9.10;;;;;;;;;;5071764;28;20239;-54
2023/04/08 07:34:00;;;;;;;11.50;8.60;;;;;;;;;;5072005;28;20199;-54
2023/04/08 07:36:27;;;;;;;10.20;8.40;;;;;;;;;;5072308;28;20199;-54
2023/04/08 07:38:53;;;;;;;11.23;9.07;;;;;;;;;;5072005;28;20284;-54
2023/04/08 07:41:20;;;;;;;11.13;9.17;;;;;;;;;;5069946;28;20219;-55
2023/04/08 07:43:47;;;;;;;11.97;8.77;;;;;;;;;;5070200;28;20202;-55
2023/04/08 07:46:13;;;;;;;11.50;9.43;;;;;;;;;;5071496;28;20200;-55
2023/04/08 07:48:39;;;;;;;14.10;9.70;;;;;;;;;;5071021;28;20661;-54
2023/04/08 07:51:06;;;;;;;11.17;9.03;;;;;;;;;;5071571;28;20249;-55
2023/04/08 07:53:33;;;;;;;66.67;53.73;;;;;;;;;;5071624;28;20620;-55
2023/04/08 07:55:59;;;;;;;14.00;11.67;;;;;;;;;;5071553;28;20298;-51
2023/04/08 07:58:25;;;;;;;9.87;8.13;;;;;;;;;;5071237;28;20292;-54
2023/04/08 08:00:52;;;;;;;10.73;8.80;;;;;;;;;;5071471;28;20571;-53
2023/04/08 08:03:18;;;;;;;11.93;9.63;;;;;;;;;;5071454;28;20757;-56
2023/04/08 08:05:44;;;;;;;13.30;9.90;;;;;;;;;;5071582;28;20297;-52
2023/04/08 08:08:10;;;;;;;11.33;8.70;;;;;;;;;;5071171;28;20199;-52
2023/04/08 08:10:37;;;;;;;12.57;9.27;;;;;;;;;;5071379;28;20203;-51
2023/04/08 08:13:03;;;;;;;11.50;9.43;;;;;;;;;;5071202;28;20682;-54
2023/04/08 08:15:29;;;;;;;13.30;9.13;;;;;;;;;;5071121;28;20669;-52
2023/04/08 08:17:56;;;;;;;17.77;14.37;;;;;;;;;;5071035;28;20709;-53
2023/04/08 08:20:22;;;;;;;13.40;11.30;;;;;;;;;;5071264;28;20204;-54
2023/04/08 08:22:48;;;;;;;9.87;8.87;;;;;;;;;;5071151;28;20217;-52
2023/04/08 08:25:14;;;;;;;9.77;8.53;;;;;;;;;;5070963;28;20568;-53
2023/04/08 08:27:41;;;;;;;10.90;9.53;;;;;;;;;;5071178;28;20294;-55
2023/04/08 08:30:08;;;;;;;13.20;9.63;;;;;;;;;;5071027;28;20233;-54
2023/04/08 08:32:34;;;;;;;11.80;9.70;;;;;;;;;;5070856;28;20601;-54
2023/04/08 08:35:01;;;;;;;12.40;9.47;;;;;;;;;;5070879;28;20203;-54
2023/04/08 08:37:27;;;;;;;10.47;8.97;;;;;;;;;;5069027;28;20231;-54
2023/04/08 08:39:54;;;;;;;12.03;9.63;;;;;;;;;;5070664;28;20574;-54
2023/04/08 08:42:21;;;;;;;12.63;9.63;;;;;;;;;;5070571;28;20207;-55
2023/04/08 08:44:47;;;;;;;13.80;9.87;;;;;;;;;;5074031;28;20606;-55
2023/04/08 08:47:13;;;;;;;11.73;9.67;;;;;;;;;;5074767;28;20204;-55
2023/04/08 08:49:39;;;;;;;11.03;9.03;;;;;;;;;;5072754;28;20257;-53
2023/04/08 08:52:06;;;;;;;12.47;9.37;;;;;;;;;;5074609;28;20287;-54
2023/04/08 08:54:32;;;;;;;10.20;8.33;;;;;;;;;;5075102;28;20204;-54
2023/04/08 08:56:58;;;;;;;11.77;9.63;;;;;;;;;;5074871;28;20885;-54
2023/04/08 08:59:24;;;;;;;14.33;9.97;;;;;;;;;;5074778;28;20235;-54
2023/04/08 09:01:50;;;;;;;12.57;9.53;;;;;;;;;;5074593;28;20665;-55
2023/04/08 09:04:18;;;;;;;10.23;9.00;;;;;;;;;;5074613;28;20229;-55
2023/04/08 09:06:45;;;;;;;11.03;9.77;;;;;;;;;;5074856;28;20207;-54
2023/04/08 09:09:13;;;;;;;10.10;8.63;;;;;;;;;;5074491;28;20195;-55
2023/04/08 09:11:40;;;;;;;10.53;9.33;;;;;;;;;;5074619;28;20200;-55
2023/04/08 09:14:16;;;;;;;10.43;8.77;;;;;;;;;;5074430;28;20202;-55
2023/04/08 09:16:43;;;;;;;14.93;12.27;;;;;;;;;;5074471;28;20673;-55
2023/04/08 09:19:10;;;;;;;10.53;8.33;;;;;;;;;;5074215;28;20638;-55
2023/04/08 09:21:36;;;;;;;11.93;9.03;;;;;;;;;;5074529;28;20191;-54
2023/04/08 09:24:02;;;;;;;10.00;8.47;;;;;;;;;;5074178;28;20673;-55
2023/04/08 09:26:30;;;;;;;11.70;9.30;;;;;;;;;;5074361;28;20260;-55
2023/04/08 09:29:00;;;;;;;17.00;9.87;;;;;;;;;;5074008;28;20680;-55
2023/04/08 09:31:27;;;;;;;10.73;9.13;;;;;;;;;;5074071;28;20297;-54
2023/04/08 09:33:54;;;;;;;11.60;9.03;;;;;;;;;;5074443;28;20253;-54
2023/04/08 09:36:20;;;;;;;10.80;8.77;;;;;;;;;;5074044;28;20222;-54
2023/04/08 09:38:46;;;;;;;11.03;8.53;;;;;;;;;;5073880;28;20227;-54
2023/04/08 09:41:13;;;;;;;11.87;9.20;;;;;;;;;;5073828;28;20204;-54
2023/04/08 09:43:42;;;;;;;11.10;9.50;;;;;;;;;;5073580;28;20665;-54
2023/04/08 09:46:11;;;;;;;10.57;9.30;;;;;;;;;;5073468;28;20211;-54
2023/04/08 09:48:40;;;;;;;11.67;9.00;;;;;;;;;;5073808;28;20192;-54
2023/04/08 09:51:06;;;;;;;11.30;10.10;;;;;;;;;;5073669;28;20206;-55
2023/04/08 09:53:35;;;;;;;11.63;10.10;;;;;;;;;;5073840;28;20202;-56
2023/04/08 09:56:02;;;;;;;11.20;9.07;;;;;;;;;;5072667;28;20701;-55
2023/04/08 09:58:28;;;;;;;13.07;10.23;;;;;;;;;;5073255;28;20304;-55
2023/04/08 10:00:56;;;;;;;12.97;9.90;;;;;;;;;;5070303;28;20282;-55
2023/04/08 10:03:26;;;;;;;17.47;13.23;;;;;;;;;;5073156;28;20207;-54
2023/04/08 10:05:56;;;;;;;11.37;9.57;;;;;;;;;;5073369;28;20234;-55
2023/04/08 10:08:23;;;;;;;10.93;9.20;;;;;;;;;;5073367;28;20196;-55
2023/04/08 10:10:49;;;;;;;10.50;8.60;;;;;;;;;;5073282;28;20207;-55
2023/04/08 10:13:15;;;;;;;13.07;8.90;;;;;;;;;;5073043;28;20196;-56
2023/04/08 10:15:42;;;;;;;11.70;9.93;;;;;;;;;;5073130;28;20567;-55
2023/04/08 10:18:26;;;;;;;10.97;9.57;;;;;;;;;;5072931;28;20561;-55
2023/04/08 10:20:53;;;;;;;13.17;9.63;;;;;;;;;;5073001;28;20256;-56
2023/04/08 10:23:39;;;;;;;12.20;9.50;;;;;;;;;;5072852;28;20207;-55
2023/04/08 10:26:26;;;;;;;12.23;9.57;;;;;;;;;;5072697;28;20257;-55
2023/04/08 10:28:52;;;;;;;8.90;8.00;;;;;;;;;;5072759;28;20188;-55
2023/04/08 10:31:22;;;;;;;10.53;9.30;;;;;;;;;;5072623;28;20199;-57
2023/04/08 10:33:48;;;;;;;10.10;9.00;;;;;;;;;;5073194;28;20226;-54
2023/04/08 10:36:16;;;;;;;9.67;8.67;;;;;;;;;;5072856;28;20207;-55
2023/04/08 10:38:42;;;;;;;15.40;12.83;;;;;;;;;;5072786;28;20296;-55
2023/04/08 10:41:09;;;;;;;10.90;9.80;;;;;;;;;;5072942;28;20261;-55
2023/04/08 10:43:36;;;;;;;8.83;7.93;;;;;;;;;;5072888;28;20207;-55
2023/04/08 10:46:02;;;;;;;9.53;8.33;;;;;;;;;;5072706;28;20203;-56
2023/04/08 10:48:28;;;;;;;10.97;9.23;;;;;;;;;;5072753;28;20195;-55
2023/04/08 10:50:55;;;;;;;10.07;9.07;;;;;;;;;;5072700;28;20192;-55
2023/04/08 10:53:27;;;;;;;11.27;8.60;;;;;;;;;;5072578;28;20192;-55
2023/04/08 10:55:53;;;;;;;10.03;8.20;;;;;;;;;;5072618;28;20223;-55
2023/04/08 10:58:19;;;;;;;9.80;8.47;;;;;;;;;;5072318;28;20315;-55
2023/04/08 11:00:45;;;;;;;11.03;8.60;;;;;;;;;;5072444;28;20249;-55
2023/04/08 11:03:12;;;;;;;12.10;9.37;;;;;;;;;;5072340;28;20200;-55
2023/04/08 11:05:38;;;;;;;9.50;8.43;;;;;;;;;;5070305;28;20195;-54
2023/04/08 11:08:04;;;;;;;10.00;8.50;;;;;;;;;;5072034;28;20199;-55
2023/04/08 11:10:36;;;;;;;11.87;8.93;;;;;;;;;;5072610;28;20204;-55
2023/04/08 11:13:02;;;;;;;9.97;8.97;;;;;;;;;;5072011;28;20700;-55
2023/04/08 11:15:31;;;;;;;9.10;8.17;;;;;;;;;;5072165;28;20275;-54
2023/04/08 11:17:57;;;;;;;9.33;8.13;;;;;;;;;;5072110;28;20207;-54
2023/04/08 11:20:24;;;;;;;11.63;9.53;;;;;;;;;;5072036;28;20218;-55
2023/04/08 11:22:51;;;;;;;11.67;8.87;;;;;;;;;;5071974;28;20211;-54
2023/04/08 11:25:17;;;;;;;11.60;9.50;;;;;;;;;;5071902;28;20203;-55
2023/04/08 11:27:46;;;;;;;11.80;9.73;;;;;;;;;;5071977;28;20270;-55
2023/04/08 11:30:12;;;;;;;12.03;9.27;;;;;;;;;;5071894;28;20208;-56
2023/04/08 11:32:38;;;;;;;12.23;10.83;;;;;;;;;;5071647;28;20843;-55
2023/04/08 11:35:05;;;;;;;15.93;12.57;;;;;;;;;;5071863;28;20206;-55
2023/04/08 11:37:36;;;;;;;12.33;9.90;;;;;;;;;;5071641;28;20199;-55
2023/04/08 11:40:02;;;;;;;11.13;9.77;;;;;;;;;;5071759;28;20196;-55
2023/04/08 11:42:28;;;;;;;12.37;10.17;;;;;;;;;;5071629;28;20192;-56
2023/04/08 11:44:56;;;;;;;13.83;10.30;;;;;;;;;;5069841;28;20290;-55
2023/04/08 11:47:22;;;;;;;11.63;9.87;;;;;;;;;;5071350;28;20203;-55
2023/04/08 11:49:48;;;;;;;12.30;9.77;;;;;;;;;;5072144;28;20203;-55
2023/04/08 11:52:14;;;;;;;10.60;8.27;;;;;;;;;;5072023;28;20200;-55
2023/04/08 11:54:41;;;;;;;11.50;9.40;;;;;;;;;;5069855;28;20192;-55
2023/04/08 11:57:08;;;;;;;12.97;10.30;;;;;;;;;;5071426;28;20222;-55
2023/04/08 11:59:35;;;;;;;10.80;9.43;;;;;;;;;;5071341;28;20261;-55
2023/04/08 12:02:02;;;;;;;11.77;9.43;;;;;;;;;;5071360;28;20670;-55
2023/04/08 12:04:28;;;;;;;10.47;9.23;;;;;;;;;;5071477;28;20229;-55
2023/04/08 12:06:55;;;;;;;11.93;10.43;;;;;;;;;;5071426;28;20199;-55
2023/04/08 12:09:21;;;;;;;13.77;10.00;;;;;;;;;;5071233;28;20207;-55
2023/04/08 12:11:47;;;;;;;10.77;9.60;;;;;;;;;;5071417;28;20199;-55
2023/04/08 12:14:13;;;;;;;11.67;9.53;;;;;;;;;;5071249;28;20206;-56
2023/04/08 12:16:39;;;;;;;11.73;9.00;;;;;;;;;;5071124;28;20203;-54
2023/04/08 12:19:06;;;;;;;12.07;10.13;;;;;;;;;;5073161;28;20218;-54
2023/04/08 12:21:33;;;;;;;12.20;10.40;;;;;;;;;;5075514;28;20233;-54
2023/04/08 12:23:59;;;;;;;14.93;10.80;;;;;;;;;;5075436;28;20672;-55
2023/04/08 12:26:25;;;;;;;13.07;10.93;;;;;;;;;;5075421;28;20199;-55
2023/04/08 12:28:51;;;;;;;12.77;11.13;;;;;;;;;;5075192;28;20206;-54
2023/04/08 12:31:17;;;;;;;14.03;11.43;;;;;;;;;;5074966;28;20203;-55
2023/04/08 12:33:44;;;;;;;14.17;11.47;;;;;;;;;;5075312;28;20657;-55
2023/04/08 12:36:11;;;;;;;12.77;11.30;;;;;;;;;;5075030;28;20704;-55
2023/04/08 12:38:37;;;;;;;12.70;11.17;;;;;;;;;;5075029;28;20223;-54
2023/04/08 12:41:03;;;;;;;12.53;10.33;;;;;;;;;;5075175;28;20590;-53
2023/04/08 12:43:31;;;;;;;13.57;11.13;;;;;;;;;;5075196;28;20199;-55
2023/04/08 12:45:57;;;;;;;17.80;15.33;;;;;;;;;;5075006;28;20203;-54
2023/04/08 12:48:23;;;;;;;17.30;13.93;;;;;;;;;;5074749;28;20188;-54
2023/04/08 12:50:49;;;;;;;12.37;10.73;;;;;;;;;;5074616;28;20226;-55
2023/04/08 12:53:17;;;;;;;18.33;12.40;;;;;;;;;;5074792;28;20204;-55
2023/04/08 12:55:43;;;;;;;17.07;12.90;;;;;;;;;;5074971;28;20711;-55
2023/04/08 12:58:09;;;;;;;16.00;13.03;;;;;;;;;;5074506;28;20224;-55
2023/04/08 13:00:37;;;;;;;12.93;11.53;;;;;;;;;;5074534;28;20612;-54
2023/04/08 13:03:05;;;;;;;16.80;11.10;;;;;;;;;;5074581;28;20210;-54
2023/04/08 13:05:31;;;;;;;13.90;11.70;;;;;;;;;;5074502;28;20191;-56
2023/04/08 13:07:57;;;;;;;12.77;11.20;;;;;;;;;;5074632;28;20191;-55
2023/04/08 13:10:25;;;;;;;15.97;12.37;;;;;;;;;;5074317;28;20291;-55
2023/04/08 13:12:51;;;;;;;13.60;11.00;;;;;;;;;;5074361;28;20689;-55
2023/04/08 13:15:17;;;;;;;16.83;11.87;;;;;;;;;;5074376;28;20210;-54
2023/04/08 13:17:44;;;;;;;15.43;11.83;;;;;;;;;;5074645;28;20199;-54
2023/04/08 13:20:10;;;;;;;22.07;17.67;;;;;;;;;;5074189;28;20609;-54
2023/04/08 13:22:36;;;;;;;14.50;11.47;;;;;;;;;;5074303;28;20218;-55
2023/04/08 13:25:05;;;;;;;12.30;10.87;;;;;;;;;;5074450;28;20657;-56
2023/04/08 13:27:32;;;;;;;16.27;11.73;;;;;;;;;;5074553;28;20260;-55
2023/04/08 13:29:58;;;;;;;11.93;10.63;;;;;;;;;;5073242;28;20196;-56
2023/04/08 13:32:24;;;;;;;12.40;10.93;;;;;;;;;;5074156;28;20732;-56
2023/04/08 13:34:50;;;;;;;15.43;12.40;;;;;;;;;;5074357;28;20247;-55
2023/04/08 13:37:16;;;;;;;14.10;11.70;;;;;;;;;;5074314;28;20624;-56
2023/04/08 13:39:42;;;;;;;12.77;10.93;;;;;;;;;;5074247;28;20306;-55
2023/04/08 13:42:08;;;;;;;15.27;11.90;;;;;;;;;;5074079;28;20695;-55
2023/04/08 13:44:36;;;;;;;12.03;10.80;;;;;;;;;;5074130;28;20195;-56
2023/04/08 13:47:02;;;;;;;14.07;11.53;;;;;;;;;;5074082;28;20264;-56
2023/04/08 13:49:28;;;;;;;13.33;10.90;;;;;;;;;;5074168;28;20266;-55
2023/04/08 13:51:54;;;;;;;12.33;10.77;;;;;;;;;;5074061;28;20294;-55
2023/04/08 13:54:20;;;;;;;13.70;10.93;;;;;;;;;;5073803;28;20199;-55
2023/04/08 13:56:46;;;;;;;12.30;10.93;;;;;;;;;;5073845;28;20219;-56
2023/04/08 13:59:12;;;;;;;15.57;12.10;;;;;;;;;;5073458;28;20675;-55
2023/04/08 14:01:40;;;;;;;13.13;11.43;;;;;;;;;;5073798;28;20230;-55
2023/04/08 14:04:06;;;;;;;13.63;11.80;;;;;;;;;;5073560;28;20199;-54
2023/04/08 14:06:32;;;;;;;14.73;11.07;;;;;;;;;;5073680;28;20213;-54
2023/04/08 14:08:58;;;;;;;14.33;12.57;;;;;;;;;;5073529;28;20806;-55
2023/04/08 14:11:24;;;;;;;12.37;11.07;;;;;;;;;;5073645;28;20195;-55
2023/04/08 14:13:50;;;;;;;14.63;11.63;;;;;;;;;;5073300;28;20275;-56
2023/04/08 14:16:17;;;;;;;13.87;10.97;;;;;;;;;;5073566;28;20199;-55
2023/04/08 14:18:44;;;;;;;13.67;11.10;;;;;;;;;;5073292;28;20223;-55
2023/04/08 14:21:14;;;;;;;14.40;11.00;;;;;;;;;;5073169;28;20229;-56
2023/04/08 14:23:40;;;;;;;12.90;11.37;;;;;;;;;;5073153;28;20665;-56
2023/04/08 14:26:06;;;;;;;11.63;10.13;;;;;;;;;;5073104;28;20575;-56
2023/04/08 14:28:35;;;;;;;13.10;11.70;;;;;;;;;;5073324;28;20249;-57